Time;durP1;ratioP1;P1;durP2;ratioP2;P2;SDS_P1;SDS_P2;PMS_P1;PMS_P2;Temp;Humidity;BMP_temperature;BMP_pressure;BME280_temperature;BME280_humidity;BME280_pressure;Samples;Min_cycle;Max_cycle;Signal;HPM_P1;HPM_P2
2021/05/13 00:00:46;;;;;;;26.02;14.70;;;;;;;13.65;100.00;100389.31;5001573;28;20038;-75
2021/05/13 00:03:12;;;;;;;29.90;14.77;;;;;;;13.74;100.00;100392.44;5014423;28;20022;-76
2021/05/13 00:05:38;;;;;;;28.10;14.30;;;;;;;13.91;100.00;100394.44;5005991;28;20057;-76
2021/05/13 00:08:04;;;;;;;29.95;14.45;;;;;;;13.84;100.00;100397.09;5014134;28;20057;-76
2021/05/13 00:10:30;;;;;;;27.52;14.80;;;;;;;13.75;100.00;100399.41;5008704;28;20093;-75
2021/05/13 00:13:00;;;;;;;34.08;15.50;;;;;;;13.68;100.00;100402.09;5009696;28;20104;-75
2021/05/13 00:15:29;;;;;;;34.58;13.65;;;;;;;13.65;100.00;100400.13;5013862;28;20060;-75
2021/05/13 00:17:56;;;;;;;30.27;14.27;;;;;;;13.65;100.00;100389.31;5008712;28;20026;-75
2021/05/13 00:20:27;;;;;;;30.92;15.05;;;;;;;13.54;100.00;100386.56;5010457;28;20037;-75
2021/05/13 00:22:53;;;;;;;28.73;14.70;;;;;;;13.70;100.00;100383.53;4995974;28;20091;-76
2021/05/13 00:25:19;;;;;;;28.67;15.10;;;;;;;13.67;100.00;100380.81;5012053;28;20030;-75
2021/05/13 00:27:45;;;;;;;37.35;15.50;;;;;;;13.65;100.00;100378.47;5002861;28;20026;-75
2021/05/13 00:30:11;;;;;;;28.75;14.88;;;;;;;13.61;100.00;100369.56;5012030;28;20022;-75
2021/05/13 00:32:37;;;;;;;34.13;15.93;;;;;;;13.61;100.00;100371.53;5006472;28;20659;-75
2021/05/13 00:35:08;;;;;;;30.30;15.00;;;;;;;13.52;100.00;100364.53;4999396;28;20068;-76
2021/05/13 00:37:34;;;;;;;31.88;16.75;;;;;;;13.53;100.00;100371.47;4996875;28;20462;-76
2021/05/13 00:39:59;;;;;;;31.23;15.82;;;;;;;13.48;100.00;100366.44;5012142;28;20034;-75
2021/05/13 00:42:25;;;;;;;30.80;15.38;;;;;;;13.57;100.00;100366.88;5012004;28;20083;-76
2021/05/13 00:44:55;;;;;;;32.03;15.52;;;;;;;13.57;100.00;100374.19;5000574;28;20101;-75
2021/05/13 00:47:22;;;;;;;34.50;15.40;;;;;;;13.50;100.00;100372.25;5012647;28;20026;-75
2021/05/13 00:49:48;;;;;;;33.53;15.50;;;;;;;13.62;100.00;100375.78;5002222;28;20109;-75
2021/05/13 00:52:13;;;;;;;32.03;15.77;;;;;;;13.46;100.00;100368.75;5012641;28;20164;-75
2021/05/13 00:54:42;;;;;;;28.75;14.40;;;;;;;13.53;100.00;100370.69;5012750;28;20034;-76
2021/05/13 00:57:10;;;;;;;28.13;14.88;;;;;;;13.73;100.00;100363.03;5011225;28;20043;-76
2021/05/13 00:59:43;;;;;;;32.88;15.82;;;;;;;13.69;100.00;100357.63;4996834;28;20483;-76
2021/05/13 01:02:08;;;;;;;35.88;16.05;;;;;;;13.54;100.00;100370.34;5009975;28;20430;-75
2021/05/13 01:04:34;;;;;;;32.78;15.80;;;;;;;13.61;100.00;100363.41;4998749;28;20079;-76
2021/05/13 01:07:00;;;;;;;30.92;15.75;;;;;;;13.72;100.00;100359.56;5011424;28;20184;-75
2021/05/13 01:09:28;;;;;;;34.90;17.23;;;;;;;13.67;100.00;100361.84;4997016;28;20101;-75
2021/05/13 01:12:00;;;;;;;31.25;15.02;;;;;;;13.64;100.00;100357.22;5009243;28;20030;-76
2021/05/13 01:17:15;;;;;;;31.00;15.68;;;;;;;13.62;100.00;100354.91;5024680;22;20054;-78
2021/05/13 01:19:51;;;;;;;33.80;15.32;;;;;;;13.48;100.00;100365.66;5008473;28;20049;-78
2021/05/13 01:22:19;;;;;;;28.48;14.88;;;;;;;13.46;100.00;100357.16;5015283;28;20037;-76
2021/05/13 01:24:45;;;;;;;31.05;15.15;;;;;;;13.42;100.00;100369.91;5016940;28;20112;-77
2021/05/13 01:27:11;;;;;;;33.83;16.30;;;;;;;13.55;100.00;100365.69;5015282;28;20034;-78
2021/05/13 01:29:44;;;;;;;32.15;15.07;;;;;;;13.53;100.00;100360.66;5011535;28;20032;-77
2021/05/13 01:32:09;;;;;;;32.25;16.15;;;;;;;13.51;100.00;100362.97;5011163;28;20034;-77
2021/05/13 01:34:35;;;;;;;33.38;15.98;;;;;;;13.49;100.00;100367.22;4997631;28;20025;-77
2021/05/13 01:37:00;;;;;;;37.28;16.27;;;;;;;13.45;100.00;100363.75;5004369;28;20042;-77
2021/05/13 01:39:26;;;;;;;33.35;15.95;;;;;;;13.46;100.00;100368.75;5000948;28;20034;-77
2021/05/13 01:41:51;;;;;;;31.70;15.82;;;;;;;13.49;100.00;100353.72;4995331;28;20077;-77
2021/05/13 01:44:17;;;;;;;35.22;16.70;;;;;;;13.47;100.00;100358.72;4992158;28;20076;-77
2021/05/13 01:46:42;;;;;;;35.17;16.48;;;;;;;13.32;100.00;100357.88;4998298;28;20037;-77
2021/05/13 01:49:20;;;;;;;38.80;16.50;;;;;;;13.27;100.00;100360.97;5008042;28;20065;-77
2021/05/13 01:51:46;;;;;;;34.42;16.27;;;;;;;13.33;100.00;100372.19;5005152;28;20030;-77
2021/05/13 01:54:13;;;;;;;31.33;15.38;;;;;;;13.39;100.00;100359.84;5002470;28;20044;-77
2021/05/13 01:56:38;;;;;;;35.47;16.52;;;;;;;13.51;100.00;100352.16;5008786;28;20064;-78
2021/05/13 01:59:04;;;;;;;32.22;16.40;;;;;;;13.46;100.00;100360.66;5005688;28;20062;-78
2021/05/13 02:01:30;;;;;;;35.70;15.63;;;;;;;13.31;100.00;100358.25;5010631;28;20040;-76
2021/05/13 02:03:55;;;;;;;37.20;16.10;;;;;;;13.33;100.00;100359.44;5009727;28;20018;-76
2021/05/13 02:06:21;;;;;;;33.60;15.95;;;;;;;13.39;100.00;100362.56;5009103;28;20034;-78
2021/05/13 02:08:46;;;;;;;34.42;16.42;;;;;;;13.22;100.00;100360.56;5012823;28;20034;-78
2021/05/13 02:11:12;;;;;;;35.30;15.05;;;;;;;13.38;100.00;100355.56;5006228;28;20017;-78
2021/05/13 02:13:37;;;;;;;42.50;16.08;;;;;;;13.45;100.00;100355.63;5008463;28;20026;-78
2021/05/13 02:16:03;;;;;;;37.47;16.85;;;;;;;13.37;100.00;100341.31;5014570;28;20478;-78
2021/05/13 02:18:29;;;;;;;32.10;16.85;;;;;;;13.53;100.00;100338.22;5011456;28;20154;-78
2021/05/13 02:20:54;;;;;;;37.67;16.30;;;;;;;13.48;100.00;100338.63;5012677;28;20034;-78
2021/05/13 02:23:20;;;;;;;39.03;16.30;;;;;;;13.52;100.00;100340.19;5011445;28;20045;-77
2021/05/13 02:25:47;;;;;;;31.48;15.75;;;;;;;13.37;100.00;100341.31;5012768;28;20029;-77
2021/05/13 02:28:13;;;;;;;35.60;15.80;;;;;;;13.47;100.00;100334.38;5013307;28;20121;-78
2021/05/13 02:30:39;;;;;;;34.60;15.60;;;;;;;13.41;100.00;100346.72;5003103;28;20030;-78
2021/05/13 02:33:05;;;;;;;33.85;15.13;;;;;;;13.55;100.00;100335.91;5004801;28;20034;-78
2021/05/13 02:35:30;;;;;;;32.80;15.38;;;;;;;13.47;100.00;100337.09;5008264;28;20033;-78
2021/05/13 02:37:56;;;;;;;32.70;15.93;;;;;;;13.32;100.00;100346.28;5011771;28;20084;-76
2021/05/13 02:40:22;;;;;;;28.85;15.20;;;;;;;13.45;100.00;100331.28;5010717;28;20072;-78
2021/05/13 02:42:47;;;;;;;32.85;15.13;;;;;;;13.36;100.00;100341.66;5010806;28;20030;-76
2021/05/13 02:45:14;;;;;;;29.92;13.93;;;;;;;13.37;100.00;100316.16;5010041;28;20046;-78
2021/05/13 02:47:41;;;;;;;36.95;15.65;;;;;;;13.38;100.00;100321.19;5014275;28;20026;-78
2021/05/13 02:50:09;;;;;;;35.97;15.30;;;;;;;13.40;100.00;100310.00;5002608;28;20045;-77
2021/05/13 02:52:35;;;;;;;32.72;15.00;;;;;;;13.36;100.00;100309.97;5018126;28;20148;-77
2021/05/13 02:55:00;;;;;;;31.40;15.05;;;;;;;13.41;100.00;100314.25;5007846;28;20483;-77
2021/05/13 02:57:26;;;;;;;32.88;16.17;;;;;;;13.17;100.00;100315.72;5008987;28;20041;-77
2021/05/13 03:00:02;;;;;;;33.78;15.35;;;;;;;13.27;100.00;100323.09;5001471;28;20034;-77
2021/05/13 03:02:28;;;;;;;32.92;16.80;;;;;;;13.37;100.00;100305.34;5001891;28;20037;-77
2021/05/13 03:04:53;;;;;;;32.50;14.65;;;;;;;13.10;100.00;100301.38;4998541;28;20030;-77
2021/05/13 03:07:19;;;;;;;34.90;15.70;;;;;;;13.30;100.00;100294.50;5006164;28;20421;-77
2021/05/13 03:09:49;;;;;;;34.50;16.45;;;;;;;13.44;100.00;100305.38;5007233;28;20053;-77
2021/05/13 03:12:14;;;;;;;34.25;16.38;;;;;;;13.51;100.00;100306.16;5005151;28;20038;-77
2021/05/13 03:14:40;;;;;;;37.10;15.93;;;;;;;13.29;100.00;100304.56;5002467;28;20511;-75
2021/05/13 03:17:05;;;;;;;33.72;15.82;;;;;;;13.28;100.00;100308.41;4994932;28;20565;-75
2021/05/13 03:19:41;;;;;;;30.20;15.10;;;;;;;13.22;100.00;100309.16;5010642;28;20026;-75
2021/05/13 03:22:11;;;;;;;34.03;14.85;;;;;;;13.26;100.00;100312.63;5000351;28;20501;-76
2021/05/13 03:24:45;;;;;;;33.45;15.88;;;;;;;13.04;100.00;100316.41;5004299;28;20124;-77
2021/05/13 03:27:55;;;;;;;33.28;15.75;;;;;;;13.09;100.00;100305.22;5006094;28;20068;-78
2021/05/13 03:29:59;;;;;;;31.50;15.55;;;;;;;12.94;100.00;100317.88;5005805;28;20062;-78
2021/05/13 03:32:24;;;;;;;32.95;16.15;;;;;;;13.01;100.00;100309.81;5007071;28;20030;-78
2021/05/13 03:34:51;;;;;;;37.85;15.98;;;;;;;13.03;100.00;100312.13;5006416;28;20036;-78
2021/05/13 03:37:19;;;;;;;38.65;15.70;;;;;;;13.00;100.00;100302.06;5005470;28;20379;-78
2021/05/13 03:39:45;;;;;;;35.42;15.75;;;;;;;13.12;100.00;100301.78;4994104;28;20065;-78
2021/05/13 03:42:10;;;;;;;32.97;15.90;;;;;;;13.20;100.00;100297.97;5001670;28;20049;-78
2021/05/13 03:44:36;;;;;;;35.70;17.00;;;;;;;13.22;100.00;100296.41;5003286;28;20072;-76
2021/05/13 03:47:01;;;;;;;34.15;16.48;;;;;;;13.28;100.00;100291.41;4996744;28;20088;-78
2021/05/13 03:49:26;;;;;;;33.80;15.38;;;;;;;13.28;100.00;100291.41;5007577;28;20022;-78
2021/05/13 03:51:52;;;;;;;34.95;15.43;;;;;;;13.30;100.00;100297.97;5009115;28;20022;-76
2021/05/13 03:54:17;;;;;;;33.72;16.05;;;;;;;13.15;100.00;100298.31;5006922;28;20498;-77
2021/05/13 03:56:43;;;;;;;35.03;15.65;;;;;;;13.18;100.00;100286.75;5004513;28;20022;-78
2021/05/13 03:59:16;;;;;;;30.83;14.50;;;;;;;13.18;100.00;100281.34;5000176;28;20053;-78
2021/05/13 04:02:42;;;;;;;34.30;15.20;;;;;;;13.18;100.00;100275.94;5009787;28;20037;-77
2021/05/13 04:04:37;;;;;;;26.52;14.43;;;;;;;13.20;100.00;100273.63;5003795;28;20057;-78
2021/05/13 04:07:05;;;;;;;31.50;14.63;;;;;;;13.23;100.00;100262.81;5009494;28;20465;-77
2021/05/13 04:09:30;;;;;;;28.50;15.30;;;;;;;13.27;100.00;100271.72;4994248;28;20038;-77
2021/05/13 04:11:56;;;;;;;33.13;14.82;;;;;;;13.37;100.00;100256.66;4999504;28;20022;-76
2021/05/13 04:14:22;;;;;;;35.28;15.57;;;;;;;13.20;100.00;100257.41;5006650;28;20534;-77
2021/05/13 04:16:54;;;;;;;32.92;15.13;;;;;;;13.24;100.00;100252.78;5003058;28;20453;-77
2021/05/13 04:19:20;;;;;;;30.70;14.93;;;;;;;13.24;100.00;100252.78;5007088;28;20490;-77
2021/05/13 04:21:46;;;;;;;30.20;14.90;;;;;;;13.27;100.00;100255.50;5010684;28;20064;-77
2021/05/13 04:24:13;;;;;;;32.72;14.15;;;;;;;13.36;100.00;100260.50;5012665;28;20410;-77
2021/05/13 04:26:40;;;;;;;32.72;15.60;;;;;;;13.22;100.00;100245.03;5005221;28;20052;-76
2021/05/13 04:29:09;;;;;;;31.88;15.15;;;;;;;13.28;100.00;100242.72;5003508;28;20034;-77
2021/05/13 04:31:36;;;;;;;31.38;14.82;;;;;;;13.33;100.00;100253.19;5011584;28;20022;-77
2021/05/13 04:34:03;;;;;;;32.53;14.60;;;;;;;13.30;100.00;100251.22;5011045;28;20029;-77
2021/05/13 04:36:29;;;;;;;34.50;15.63;;;;;;;13.33;100.00;100243.13;4994769;28;20546;-76
2021/05/13 04:38:54;;;;;;;29.88;14.77;;;;;;;13.33;100.00;100240.44;5009076;28;20037;-77
2021/05/13 04:41:20;;;;;;;30.25;14.77;;;;;;;13.18;100.00;100246.19;5003843;28;20062;-77
2021/05/13 04:43:46;;;;;;;29.23;15.48;;;;;;;13.19;100.00;100245.81;5013842;28;20042;-77
2021/05/13 04:46:12;;;;;;;30.88;14.93;;;;;;;13.30;100.00;100241.19;5006351;28;20046;-77
2021/05/13 04:49:14;;;;;;;31.80;14.93;;;;;;;13.38;100.00;100245.47;5009922;28;20026;-77
2021/05/13 04:51:29;;;;;;;29.45;14.38;;;;;;;13.30;100.00;100241.19;5005509;28;20103;-77
2021/05/13 04:53:54;;;;;;;29.50;14.80;;;;;;;13.34;100.00;100241.97;5012713;28;20038;-77
2021/05/13 04:56:21;;;;;;;31.85;15.48;;;;;;;13.37;100.00;100249.34;5006730;28;20033;-77
2021/05/13 04:58:48;;;;;;;29.95;15.55;;;;;;;13.43;100.00;100238.91;5011157;28;20096;-76
2021/05/13 05:01:14;;;;;;;32.33;15.23;;;;;;;13.44;100.00;100245.84;5004489;28;20041;-77
2021/05/13 05:03:39;;;;;;;35.20;15.40;;;;;;;13.55;100.00;100238.53;4998068;28;20038;-77
2021/05/13 05:06:05;;;;;;;36.10;15.68;;;;;;;13.53;100.00;100238.13;5003671;28;20088;-77
2021/05/13 05:08:30;;;;;;;29.98;14.65;;;;;;;13.47;100.00;100229.63;5005508;28;20034;-77
2021/05/13 05:10:56;;;;;;;29.05;14.70;;;;;;;13.41;100.00;100227.69;5007246;28;20511;-77
2021/05/13 05:13:22;;;;;;;29.67;14.82;;;;;;;13.57;100.00;100220.75;5008883;28;20045;-77
2021/05/13 05:15:47;;;;;;;31.67;14.90;;;;;;;13.49;100.00;100227.31;5009174;28;20108;-77
2021/05/13 05:18:21;;;;;;;32.15;15.35;;;;;;;13.58;100.00;100213.41;5011304;28;20453;-77
2021/05/13 05:20:47;;;;;;;33.13;15.48;;;;;;;13.51;100.00;100211.47;5007116;28;20045;-77
2021/05/13 05:23:12;;;;;;;31.23;14.93;;;;;;;13.65;100.00;100213.41;5012290;28;20034;-77
2021/05/13 05:25:39;;;;;;;30.77;15.15;;;;;;;13.73;100.00;100209.56;5004013;28;20037;-77
2021/05/13 05:28:05;;;;;;;34.72;14.55;;;;;;;13.80;100.00;100206.09;5007972;28;20111;-77
2021/05/13 05:30:34;;;;;;;31.92;14.93;;;;;;;13.77;100.00;100202.22;5010620;28;20038;-77
2021/05/13 05:33:05;;;;;;;30.52;14.75;;;;;;;13.81;100.00;100204.91;5010854;28;20036;-77
2021/05/13 05:35:31;;;;;;;33.00;14.52;;;;;;;13.74;100.00;100200.28;5009221;28;20038;-77
2021/05/13 05:37:57;;;;;;;34.63;15.02;;;;;;;13.68;100.00;100201.06;5010815;28;20033;-77
2021/05/13 05:40:24;;;;;;;32.92;14.68;;;;;;;13.81;100.00;100200.28;5009770;28;20029;-77
2021/05/13 05:42:50;;;;;;;33.90;14.73;;;;;;;13.80;100.00;100196.00;5009639;28;20095;-76
2021/05/13 05:45:17;;;;;;;32.13;14.35;;;;;;;13.83;100.00;100197.19;5009351;28;20498;-77
2021/05/13 05:47:44;;;;;;;33.00;14.20;;;;;;;13.92;100.00;100197.56;5011984;28;20091;-77
2021/05/13 05:50:10;;;;;;;30.60;14.10;;;;;;;13.97;100.00;100192.53;5006616;28;20048;-77
2021/05/13 05:52:36;;;;;;;30.75;14.35;;;;;;;13.97;100.00;100197.19;5012041;28;20033;-77
2021/05/13 05:55:03;;;;;;;29.80;13.30;;;;;;;13.85;100.00;100189.44;5007713;28;20522;-77
2021/05/13 05:57:29;;;;;;;27.48;13.52;;;;;;;13.84;100.00;100196.78;5010778;28;20068;-77
2021/05/13 05:59:55;;;;;;;34.35;14.18;;;;;;;13.87;100.00;100189.84;4995093;28;20030;-77
2021/05/13 06:02:21;;;;;;;28.90;12.95;;;;;;;13.84;100.00;100193.31;5007552;28;20380;-76
2021/05/13 06:04:46;;;;;;;30.45;14.27;;;;;;;13.82;100.00;100193.69;5011784;28;20045;-76
2021/05/13 06:07:12;;;;;;;23.40;11.68;;;;;;;13.85;100.00;100192.94;4989485;28;20599;-77
2021/05/13 06:09:38;;;;;;;29.25;12.77;;;;;;;13.94;100.00;100189.81;4999164;28;20443;-77
2021/05/13 06:12:04;;;;;;;30.08;13.23;;;;;;;13.94;100.00;100193.31;5006211;28;20222;-76
2021/05/13 06:14:29;;;;;;;27.30;12.18;;;;;;;13.93;100.00;100188.28;5003110;28;20127;-76
2021/05/13 06:16:55;;;;;;;29.27;13.07;;;;;;;13.81;100.00;100178.63;5004874;28;20034;-76
2021/05/13 06:19:20;;;;;;;23.80;13.23;;;;;;;13.90;100.00;100183.66;5003443;28;20045;-77
2021/05/13 06:21:46;;;;;;;27.58;13.45;;;;;;;13.88;100.00;100185.97;5011343;28;20021;-77
2021/05/13 06:24:12;;;;;;;29.73;13.23;;;;;;;13.84;100.00;100191.38;5002656;28;20117;-77
2021/05/13 06:26:38;;;;;;;31.92;13.15;;;;;;;13.91;100.00;100190.59;5000703;28;20491;-77
2021/05/13 06:29:05;;;;;;;30.15;12.73;;;;;;;13.81;100.00;100202.22;5010204;28;20045;-77
2021/05/13 06:31:32;;;;;;;25.88;11.93;;;;;;;13.81;100.00;100188.66;5011157;28;20423;-77
2021/05/13 06:33:57;;;;;;;27.02;12.88;;;;;;;13.86;100.00;100196.41;4997226;28;20392;-77
2021/05/13 06:36:23;;;;;;;26.10;12.82;;;;;;;13.85;100.00;100192.16;5006337;28;20069;-77
2021/05/13 06:38:48;;;;;;;27.00;13.05;;;;;;;13.71;100.00;100190.22;5011639;28;20068;-77
2021/05/13 06:41:14;;;;;;;30.80;12.73;;;;;;;13.80;100.00;100182.47;5007909;28;20036;-77
2021/05/13 06:43:40;;;;;;;31.83;12.80;;;;;;;13.76;100.00;100187.16;5006017;28;20041;-77
2021/05/13 06:46:05;;;;;;;25.13;11.80;;;;;;;13.78;100.00;100184.03;5008508;28;20457;-77
2021/05/13 06:48:33;;;;;;;25.77;12.90;;;;;;;13.72;100.00;100183.66;5011396;28;20026;-77
2021/05/13 06:50:58;;;;;;;25.65;12.45;;;;;;;13.88;100.00;100184.03;5000012;28;20029;-77
2021/05/13 06:53:24;;;;;;;26.88;12.75;;;;;;;13.76;100.00;100183.66;5010634;28;20041;-77
2021/05/13 06:55:53;;;;;;;29.65;13.07;;;;;;;13.83;100.00;100176.31;5011592;28;20115;-77
2021/05/13 06:58:22;;;;;;;24.30;11.48;;;;;;;13.76;100.00;100180.94;5005103;28;20379;-77
2021/05/13 07:00:49;;;;;;;25.42;12.02;;;;;;;13.78;100.00;100179.38;5001155;28;20040;-76
2021/05/13 07:03:15;;;;;;;26.15;11.82;;;;;;;13.79;100.00;100183.66;5006557;28;20093;-77
2021/05/13 07:05:42;;;;;;;24.42;11.45;;;;;;;13.77;100.00;100177.84;5006160;28;20041;-76
2021/05/13 07:08:09;;;;;;;22.33;12.07;;;;;;;13.78;100.00;100175.94;5008380;28;20041;-77
2021/05/13 07:10:38;;;;;;;25.50;11.23;;;;;;;13.81;100.00;100178.63;5008222;28;20029;-76
2021/05/13 07:13:04;;;;;;;22.63;11.68;;;;;;;13.89;100.00;100177.47;5004564;28;20518;-77
2021/05/13 07:15:31;;;;;;;23.75;11.35;;;;;;;13.92;100.00;100184.78;5008117;28;20112;-76
2021/05/13 07:17:57;;;;;;;25.90;11.80;;;;;;;13.70;100.00;100177.09;5007935;28;20065;-77
2021/05/13 07:20:23;;;;;;;20.25;10.75;;;;;;;13.84;100.00;100179.78;5006143;28;20065;-77
2021/05/13 07:22:50;;;;;;;23.13;10.52;;;;;;;13.86;100.00;100180.94;5006304;28;20446;-77
2021/05/13 07:25:16;;;;;;;21.92;11.13;;;;;;;13.90;100.00;100178.25;5008282;28;20029;-77
2021/05/13 07:27:43;;;;;;;22.13;11.27;;;;;;;13.89;100.00;100177.47;5009004;28;20479;-77
2021/05/13 07:30:13;;;;;;;22.88;11.10;;;;;;;13.87;100.00;100182.50;5008754;28;20064;-77
2021/05/13 07:32:39;;;;;;;20.63;10.10;;;;;;;13.87;100.00;100190.59;5016010;28;20091;-77
2021/05/13 07:35:26;;;;;;;22.85;11.30;;;;;;;13.99;100.00;100184.81;5006107;28;20093;-76
2021/05/13 07:37:52;;;;;;;24.73;11.20;;;;;;;14.21;100.00;100182.81;4940154;29;20048;-76
2021/05/13 07:40:23;;;;;;;21.75;11.57;;;;;;;14.02;100.00;100183.22;4945357;28;20050;-76
2021/05/13 07:42:49;;;;;;;22.05;11.13;;;;;;;13.90;100.00;100189.06;4937926;29;20052;-76
2021/05/13 07:45:16;;;;;;;22.77;11.02;;;;;;;13.92;100.00;100184.78;4943502;29;20035;-77
2021/05/13 07:47:43;;;;;;;22.55;11.18;;;;;;;14.01;100.00;100187.91;4950756;28;20039;-76
2021/05/13 07:50:13;;;;;;;23.05;10.65;;;;;;;13.69;100.00;100187.13;4950352;29;20047;-76
2021/05/13 07:52:39;;;;;;;23.38;11.40;;;;;;;13.78;100.00;100184.78;4945282;28;20069;-76
2021/05/13 07:55:07;;;;;;;25.77;11.43;;;;;;;13.98;100.00;100185.94;4951709;29;20039;-76
2021/05/13 07:57:33;;;;;;;28.45;11.38;;;;;;;14.11;100.00;100178.22;4953880;29;20101;-77
2021/05/13 07:59:58;;;;;;;25.30;12.40;;;;;;;14.02;100.00;100178.59;4950187;29;20113;-76
2021/05/13 08:02:24;;;;;;;26.90;12.38;;;;;;;14.05;100.00;100177.81;4951345;29;20039;-76
2021/05/13 08:04:49;;;;;;;28.50;11.98;;;;;;;14.10;100.00;100163.88;4952947;29;20051;-76
2021/05/13 08:07:20;;;;;;;26.75;12.02;;;;;;;14.16;100.00;100170.47;4933484;29;20031;-76
2021/05/13 08:09:46;;;;;;;26.13;11.70;;;;;;;14.27;100.00;100173.13;4943132;29;20122;-76
2021/05/13 08:12:12;;;;;;;30.23;11.90;;;;;;;14.31;100.00;100180.13;4950784;29;20181;-76
2021/05/13 08:14:37;;;;;;;30.83;11.90;;;;;;;14.39;100.00;100175.44;4972496;28;20034;-77
2021/05/13 08:17:03;;;;;;;20.95;10.15;;;;;;;14.24;100.00;100169.28;5003047;28;20142;-76
2021/05/13 08:19:28;;;;;;;22.48;11.50;;;;;;;14.32;100.00;100159.97;5009755;28;20033;-76
2021/05/13 08:21:53;;;;;;;22.23;11.57;;;;;;;14.28;100.00;100159.25;5008561;28;20032;-76
2021/05/13 08:24:19;;;;;;;25.00;11.18;;;;;;;14.24;100.00;100163.88;5002535;28;20045;-76
2021/05/13 08:26:45;;;;;;;24.27;11.52;;;;;;;14.35;100.00;100167.34;4999483;28;20038;-76
2021/05/13 08:29:10;;;;;;;25.30;11.43;;;;;;;14.31;100.00;100163.88;5009246;28;20036;-76
2021/05/13 08:31:36;;;;;;;24.83;12.05;;;;;;;14.27;100.00;100162.28;5007350;28;20037;-76
2021/05/13 08:34:01;;;;;;;21.85;10.68;;;;;;;14.12;100.00;100164.28;5008994;28;20113;-76
2021/05/13 08:36:27;;;;;;;24.00;10.75;;;;;;;14.17;100.00;100169.28;5004851;28;20033;-76
2021/05/13 08:38:52;;;;;;;21.23;10.82;;;;;;;14.26;100.00;100161.53;5007293;28;20030;-76
2021/05/13 08:41:18;;;;;;;20.80;10.57;;;;;;;14.10;100.00;100172.00;5012960;28;20036;-76
2021/05/13 08:43:49;;;;;;;19.95;9.65;;;;;;;14.17;100.00;100174.69;5005447;28;20044;-76
2021/05/13 08:46:17;;;;;;;22.13;9.77;;;;;;;14.23;100.00;100178.56;5000378;28;20414;-76
2021/05/13 08:48:43;;;;;;;17.80;8.95;;;;;;;14.17;100.00;100168.50;5010042;28;20029;-76
2021/05/13 08:51:09;;;;;;;20.88;9.85;;;;;;;14.23;100.00;100173.13;5000549;28;20029;-76
2021/05/13 08:53:53;;;;;;;21.80;9.73;;;;;;;14.34;100.00;100167.75;4987675;28;20088;-77
2021/05/13 08:56:20;;;;;;;21.98;9.52;;;;;;;14.28;100.00;100172.78;5001663;28;20486;-76
2021/05/13 08:58:46;;;;;;;16.77;8.43;;;;;;;14.31;100.00;100158.44;5005639;28;20029;-76
2021/05/13 09:01:16;;;;;;;19.60;9.15;;;;;;;14.40;100.00;100161.50;5008801;28;20520;-76
2021/05/13 09:03:44;;;;;;;20.83;8.95;;;;;;;14.48;100.00;100154.13;5007953;28;20045;-76
2021/05/13 09:06:32;;;;;;;19.98;8.65;;;;;;;14.55;100.00;100161.47;5005271;28;20048;-76
2021/05/13 09:09:14;;;;;;;14.75;8.27;;;;;;;14.57;100.00;100162.63;5009171;28;20030;-76
2021/05/13 09:11:56;;;;;;;14.27;8.25;;;;;;;14.60;100.00;100161.81;5005133;28;20030;-76
2021/05/13 09:14:22;;;;;;;12.70;7.60;;;;;;;14.56;100.00;100163.00;5004804;28;20034;-76
2021/05/13 09:16:49;;;;;;;13.90;7.93;;;;;;;14.44;100.00;100156.84;5006252;28;20030;-76
2021/05/13 09:19:29;;;;;;;14.30;7.68;;;;;;;14.53;100.00;100158.38;5003476;28;20088;-76
2021/05/13 09:21:57;;;;;;;15.02;7.07;;;;;;;14.68;100.00;100162.56;5001712;28;20030;-76
2021/05/13 09:24:54;;;;;;;14.65;8.25;;;;;;;14.66;100.00;100156.75;5007523;28;20037;-76
2021/05/13 09:27:41;;;;;;;13.48;7.07;;;;;;;14.78;100.00;100148.19;5007711;28;20040;-76
2021/05/13 09:30:08;;;;;;;12.02;7.28;;;;;;;14.92;100.00;100153.56;5009467;28;20025;-76
2021/05/13 09:32:35;;;;;;;11.15;6.72;;;;;;;14.90;100.00;100147.75;5012783;28;20040;-76
2021/05/13 09:35:06;;;;;;;13.80;7.35;;;;;;;15.01;100.00;100156.59;5007819;28;20029;-76
2021/05/13 09:37:46;;;;;;;12.95;7.18;;;;;;;14.97;100.00;100153.13;5002682;28;20493;-76
2021/05/13 09:40:13;;;;;;;12.50;6.00;;;;;;;14.99;100.00;100148.06;4996619;28;20125;-76
2021/05/13 09:42:39;;;;;;;9.02;6.03;;;;;;;14.96;100.00;100148.88;4995147;28;20066;-77
2021/05/13 09:45:08;;;;;;;12.05;6.45;;;;;;;14.82;100.00;100148.94;5004637;28;20072;-77
2021/05/13 09:47:34;;;;;;;12.18;5.72;;;;;;;14.88;100.00;100148.16;5009073;28;20065;-76
2021/05/13 09:50:07;;;;;;;12.27;5.90;;;;;;;14.87;100.00;100156.66;5007929;28;20034;-76
2021/05/13 09:52:41;;;;;;;10.45;5.40;;;;;;;14.81;100.00;100152.81;5001506;28;20790;-77
2021/05/13 09:55:20;;;;;;;11.48;6.35;;;;;;;14.76;100.00;100150.53;5008393;28;20120;-77
2021/05/13 09:57:51;;;;;;;9.13;5.30;;;;;;;14.75;100.00;100149.75;4999739;28;20034;-77
2021/05/13 10:00:37;;;;;;;9.23;5.30;;;;;;;14.82;100.00;100149.72;4993727;28;20029;-77
2021/05/13 10:03:07;;;;;;;9.27;5.80;;;;;;;14.85;100.00;100159.78;4993072;28;20414;-77
2021/05/13 10:05:33;;;;;;;9.30;5.40;;;;;;;14.98;100.00;100158.13;5004527;28;20044;-76
2021/05/13 10:07:59;;;;;;;9.15;5.38;;;;;;;14.93;100.00;100157.78;5006649;28;20013;-77
2021/05/13 10:10:25;;;;;;;7.63;4.85;;;;;;;14.95;100.00;100153.53;5002564;28;20061;-76
2021/05/13 10:12:54;;;;;;;7.55;5.07;;;;;;;15.00;100.00;100150.38;5012052;28;20081;-77
2021/05/13 10:15:20;;;;;;;9.32;5.38;;;;;;;14.96;100.00;100148.88;5010734;28;20045;-77
2021/05/13 10:17:46;;;;;;;8.50;5.18;;;;;;;14.94;100.00;100149.25;5001789;28;20027;-76
2021/05/13 10:20:16;;;;;;;12.32;5.25;;;;;;;15.01;100.00;100141.09;5003456;28;20514;-76
2021/05/13 10:22:46;;;;;;;11.37;5.70;;;;;;;15.05;100.00;100152.69;5003869;28;20072;-77
2021/05/13 10:25:25;;;;;;;9.27;5.25;;;;;;;14.97;100.00;100143.06;5005627;28;20044;-77
2021/05/13 10:28:02;;;;;;;9.95;4.85;;;;;;;15.00;100.00;100141.50;5009555;28;20033;-77
2021/05/13 10:30:33;;;;;;;6.75;4.45;;;;;;;14.76;100.00;100145.09;5002442;28;20042;-77
2021/05/13 10:33:11;;;;;;;;;;;;;;;14.78;100.00;100148.19;5005770;28;20521;-76
2021/05/13 10:35:38;;;;;;;8.77;4.70;;;;;;;14.95;100.00;100150.81;5005355;28;20004;-76
2021/05/13 10:38:11;;;;;;;7.53;4.93;;;;;;;14.92;100.00;100148.91;5007603;28;20022;-77
2021/05/13 10:43:08;;;;;;;6.93;4.70;;;;;;;14.92;100.00;100148.13;5007813;28;20576;-77
2021/05/13 10:45:38;;;;;;;8.60;5.38;;;;;;;14.85;100.00;100142.72;5005044;28;20030;-77
2021/05/13 10:48:26;;;;;;;8.13;4.93;;;;;;;14.97;100.00;100147.69;5010995;28;20083;-77
2021/05/13 10:51:07;;;;;;;9.60;5.10;;;;;;;14.94;100.00;100151.97;5009866;28;20104;-76
2021/05/13 10:53:39;;;;;;;7.95;5.45;;;;;;;14.94;100.00;100140.38;5004350;28;20045;-76
2021/05/13 10:56:30;;;;;;;11.35;5.43;;;;;;;15.07;100.00;100141.44;5002505;28;20442;-76
2021/05/13 10:59:10;;;;;;;12.18;6.20;;;;;;;15.12;100.00;100141.00;5001719;28;20475;-76
2021/05/13 11:01:53;;;;;;;10.07;5.57;;;;;;;15.13;100.00;100142.56;5004789;28;20038;-76
2021/05/13 11:04:25;;;;;;;8.20;4.90;;;;;;;15.14;100.00;100138.69;5008254;28;20034;-76
2021/05/13 11:06:52;;;;;;;10.02;5.22;;;;;;;15.18;100.00;100134.00;5005814;28;20044;-76
2021/05/13 11:12:05;;;;;;;7.90;5.10;;;;;;;15.26;100.00;100130.06;4997068;28;20034;-76
2021/05/13 11:14:30;;;;;;;9.88;5.45;;;;;;;15.22;100.00;100127.38;4998409;28;20440;-76
2021/05/13 11:16:57;;;;;;;13.23;5.80;;;;;;;15.36;100.00;100124.56;5008645;28;20220;-76